Time;durP1;ratioP1;P1;durP2;ratioP2;P2;SDS_P1;SDS_P2;PMS_P1;PMS_P2;Temp;Humidity;BMP_temperature;BMP_pressure;BME280_temperature;BME280_humidity;BME280_pressure;Samples;Min_cycle;Max_cycle;Signal;HPM_P1;HPM_P2
2022/10/30 00:00:50;;;;;;;8.40;5.70;;;;;;;-143.84;87.87;45165.22;5050198;28;20519;-70
2022/10/30 00:03:17;;;;;;;6.17;5.50;;;;;;;-143.84;87.48;45169.03;5049416;28;20481;-70
2022/10/30 00:05:47;;;;;;;6.00;5.50;;;;;;;-143.84;87.74;45195.69;5049654;28;20451;-70
2022/10/30 00:08:16;;;;;;;8.50;4.87;;;;;;;-143.84;87.94;45155.69;5049998;28;20622;-70
2022/10/30 00:10:44;;;;;;;6.17;5.60;;;;;;;-143.84;87.87;45169.03;5049805;28;20437;-70
2022/10/30 00:13:11;;;;;;;7.23;5.37;;;;;;;-143.84;88.06;45178.56;5050072;28;20884;-70
2022/10/30 00:15:40;;;;;;;6.40;5.73;;;;;;;-143.84;88.23;45176.66;5049815;28;20488;-70
2022/10/30 00:18:07;;;;;;;11.13;5.60;;;;;;;-143.84;88.25;45169.03;5049758;28;20452;-70
2022/10/30 00:20:36;;;;;;;9.40;5.80;;;;;;;-143.84;88.45;45161.41;5049966;28;20795;-70
2022/10/30 00:23:03;;;;;;;8.00;5.70;;;;;;;-143.84;88.68;45191.88;5049678;28;20441;-70
2022/10/30 00:25:30;;;;;;;8.17;6.10;;;;;;;-143.84;88.32;45188.06;5049522;28;20864;-70
2022/10/30 00:27:57;;;;;;;12.73;5.97;;;;;;;-143.84;88.15;45201.41;5049876;28;20510;-70
2022/10/30 00:30:24;;;;;;;11.17;6.00;;;;;;;-143.84;88.06;45172.84;5049721;28;20883;-70
2022/10/30 00:32:53;;;;;;;11.33;6.20;;;;;;;-143.84;88.01;45165.22;5049746;28;20452;-70
2022/10/30 00:35:20;;;;;;;6.00;5.50;;;;;;;-143.84;87.74;45159.50;5049511;28;20487;-70
2022/10/30 00:37:47;;;;;;;7.80;5.77;;;;;;;-143.84;87.40;45176.66;5049317;28;20517;-70
2022/10/30 00:40:16;;;;;;;5.57;4.27;;;;;;;-143.84;87.43;45167.13;5049240;28;20442;-70
2022/10/30 00:42:43;;;;;;;9.13;5.50;;;;;;;-143.84;87.48;45172.84;5049172;28;20440;-70
2022/10/30 00:45:13;;;;;;;8.50;5.47;;;;;;;-143.84;87.56;45167.13;5049307;28;20935;-70
2022/10/30 00:47:43;;;;;;;7.73;5.47;;;;;;;-143.84;87.63;45170.94;5049335;28;20532;-70
2022/10/30 00:50:17;;;;;;;5.30;4.87;;;;;;;-143.84;87.56;45169.03;5049060;28;20800;-70
2022/10/30 00:52:48;;;;;;;5.40;4.90;;;;;;;-143.84;87.09;45155.69;5049267;28;20510;-70
2022/10/30 00:55:19;;;;;;;6.17;5.60;;;;;;;-143.84;86.90;45191.88;5048683;28;20485;-70
2022/10/30 00:57:49;;;;;;;5.30;4.87;;;;;;;-143.84;86.57;45165.22;5048400;28;20499;-70
2022/10/30 01:00:18;;;;;;;6.13;5.23;;;;;;;-143.84;86.38;45159.50;5044866;28;20476;-70
2022/10/30 01:02:46;;;;;;;6.80;5.60;;;;;;;-143.84;86.11;45186.16;5047850;28;20457;-70
2022/10/30 01:05:17;;;;;;;8.53;5.33;;;;;;;-143.84;86.03;45188.06;5049085;28;20452;-70
2022/10/30 01:07:45;;;;;;;10.37;5.20;;;;;;;-143.84;85.61;45167.13;5048868;28;20460;-70
2022/10/30 01:10:13;;;;;;;5.60;5.10;;;;;;;-143.84;85.30;45163.31;5048121;28;21004;-70
2022/10/30 01:12:42;;;;;;;8.33;6.10;;;;;;;-143.84;85.58;45170.94;5048455;28;20434;-70
2022/10/30 01:15:11;;;;;;;5.53;5.13;;;;;;;-143.84;85.76;45148.09;5048260;28;20519;-70
2022/10/30 01:17:56;;;;;;;10.43;5.53;;;;;;;-143.84;85.89;45172.84;5048790;28;20441;-70
2022/10/30 01:20:52;;;;;;;7.00;5.20;;;;;;;-143.84;85.76;45186.16;5048865;28;20438;-70
2022/10/30 01:23:34;;;;;;;5.40;5.00;;;;;;;-143.84;85.11;45169.03;5041998;28;20835;-70
2022/10/30 01:26:12;;;;;;;9.40;5.47;;;;;;;-143.84;85.17;45170.94;5048133;28;20448;-70
2022/10/30 01:28:55;;;;;;;5.17;4.77;;;;;;;-143.84;85.16;45167.13;5048707;28;20440;-70
2022/10/30 01:31:40;;;;;;;7.07;5.27;;;;;;;-143.84;84.73;45170.94;5048749;28;20942;-70
2022/10/30 01:34:19;;;;;;;5.90;5.40;;;;;;;-143.84;84.60;45186.16;5048480;28;20559;-70
2022/10/30 01:36:55;;;;;;;5.80;5.20;;;;;;;-143.84;83.90;45170.94;5048616;28;20567;-70
2022/10/30 01:39:25;;;;;;;7.23;5.83;;;;;;;-143.84;83.75;45189.97;5048938;28;20445;-71
2022/10/30 01:41:52;;;;;;;6.40;5.67;;;;;;;-143.84;83.61;45161.41;5048619;28;20436;-71
2022/10/30 01:44:25;;;;;;;8.57;6.00;;;;;;;-143.84;83.74;45184.25;5048470;28;20447;-70
2022/10/30 01:47:08;;;;;;;7.17;6.47;;;;;;;-143.84;83.68;45197.59;5048851;28;20442;-70
2022/10/30 01:50:03;;;;;;;15.97;6.70;;;;;;;-143.84;83.55;45157.59;5048424;28;20448;-71
2022/10/30 01:52:38;;;;;;;9.93;6.90;;;;;;;-143.84;83.18;45159.50;5046254;28;20567;-70
2022/10/30 01:55:13;;;;;;;10.97;6.70;;;;;;;-143.84;83.38;45197.59;5048199;28;21271;-70
2022/10/30 01:57:50;;;;;;;9.80;7.03;;;;;;;-143.84;83.24;45165.22;5048838;28;20437;-70
2022/10/30 02:00:18;;;;;;;8.33;6.70;;;;;;;-143.84;83.92;45193.78;5048219;28;20507;-70
2022/10/30 02:02:46;;;;;;;7.70;6.17;;;;;;;-143.84;84.43;45201.41;5048348;28;20492;-70
2022/10/30 02:05:22;;;;;;;13.23;7.10;;;;;;;-143.84;84.49;45195.69;5067722;28;20445;-70
2022/10/30 02:07:50;;;;;;;8.63;6.67;;;;;;;-143.84;84.75;45184.25;5067858;28;20930;-70
2022/10/30 02:10:18;;;;;;;12.83;5.97;;;;;;;-143.84;84.77;45191.88;5068550;28;20448;-70
2022/10/30 02:12:45;;;;;;;10.47;6.57;;;;;;;-143.84;84.70;45170.94;5071291;28;20438;-70
2022/10/30 02:15:12;;;;;;;8.30;6.20;;;;;;;-143.84;84.67;45235.69;5071621;28;20484;-70
2022/10/30 02:17:39;;;;;;;7.30;6.57;;;;;;;-143.84;84.37;45191.88;5072044;28;20942;-70
2022/10/30 02:20:08;;;;;;;11.70;6.90;;;;;;;-143.84;84.17;45186.16;5071887;28;20444;-70
2022/10/30 02:22:36;;;;;;;9.13;6.10;;;;;;;-143.84;83.88;45184.25;5071825;28;20509;-70
2022/10/30 02:25:04;;;;;;;8.30;6.97;;;;;;;-143.84;83.85;45167.13;5072291;28;20444;-70
2022/10/30 02:27:31;;;;;;;7.23;6.63;;;;;;;-143.84;83.41;45169.03;5072356;28;20439;-70
2022/10/30 02:29:59;;;;;;;9.43;7.00;;;;;;;-143.84;83.22;45138.56;5072148;28;20606;-70
2022/10/30 02:32:26;;;;;;;7.60;6.50;;;;;;;-143.84;83.29;45155.69;5071749;28;20451;-70
2022/10/30 02:34:53;;;;;;;7.97;6.10;;;;;;;-143.84;82.63;45167.13;5072025;28;20503;-70
2022/10/30 02:37:20;;;;;;;7.37;6.67;;;;;;;-143.84;82.37;45186.16;5071829;28;20440;-70
2022/10/30 02:39:49;;;;;;;9.00;6.33;;;;;;;-143.84;82.27;45157.59;5071611;28;20463;-70
2022/10/30 02:42:16;;;;;;;12.93;6.60;;;;;;;-143.84;82.17;45167.13;5071584;28;21178;-70
2022/10/30 02:44:43;;;;;;;8.87;6.47;;;;;;;-143.84;82.06;45167.13;5070934;28;20430;-70
2022/10/30 02:47:10;;;;;;;8.10;6.73;;;;;;;-143.84;82.18;45153.81;5070954;28;20448;-70
2022/10/30 02:49:37;;;;;;;12.63;6.20;;;;;;;-143.84;82.08;45178.56;5071557;28;20455;-70
2022/10/30 02:52:07;;;;;;;8.80;6.73;;;;;;;-143.84;82.00;45180.47;5071634;28;20469;-70
2022/10/30 02:54:35;;;;;;;9.10;6.20;;;;;;;-143.84;81.77;45167.13;5071421;28;20481;-70
2022/10/30 02:57:03;;;;;;;17.60;7.20;;;;;;;-143.84;81.34;45174.75;5071604;28;20440;-70
2022/10/30 02:59:31;;;;;;;14.80;7.37;;;;;;;-143.84;81.32;45169.03;5071341;28;20448;-71
2022/10/30 03:01:58;;;;;;;7.63;6.93;;;;;;;-143.84;81.60;45167.13;5071364;28;20437;-71
2022/10/30 03:04:25;;;;;;;7.83;6.50;;;;;;;-143.84;81.20;45188.06;5070994;28;20480;-71
2022/10/30 03:06:52;;;;;;;16.10;6.17;;;;;;;-143.84;81.16;45201.41;5071156;28;21212;-71
2022/10/30 03:09:19;;;;;;;9.20;6.90;;;;;;;-143.84;80.51;45186.16;5071071;28;21068;-70
2022/10/30 03:11:46;;;;;;;7.37;6.67;;;;;;;-143.84;80.65;45209.03;5071168;28;20440;-70
2022/10/30 03:14:15;;;;;;;7.83;7.03;;;;;;;-143.84;80.34;45170.94;5070961;28;20451;-71
2022/10/30 03:16:42;;;;;;;9.13;6.13;;;;;;;-143.84;79.89;45165.22;5071016;28;20470;-71
2022/10/30 03:19:09;;;;;;;7.43;5.80;;;;;;;-143.84;79.82;45180.47;5071009;28;20439;-70
2022/10/30 03:21:36;;;;;;;7.20;6.50;;;;;;;-143.84;79.89;45203.31;5070799;28;20447;-71
2022/10/30 03:24:04;;;;;;;11.97;6.50;;;;;;;-143.84;79.40;45159.50;5070453;28;20510;-70
2022/10/30 03:26:32;;;;;;;7.00;6.33;;;;;;;-143.84;79.31;45178.56;5053044;28;20458;-70
2022/10/30 03:28:59;;;;;;;7.67;6.43;;;;;;;-143.84;79.08;45151.91;5070679;28;20452;-71
2022/10/30 03:31:27;;;;;;;8.60;6.40;;;;;;;-143.84;78.79;45186.16;5070817;28;20428;-70
2022/10/30 03:33:54;;;;;;;19.33;6.23;;;;;;;-143.84;78.74;45167.13;5070720;28;20448;-70
2022/10/30 03:36:21;;;;;;;10.30;6.40;;;;;;;-143.84;78.44;45144.28;5070825;28;20831;-71
2022/10/30 03:38:49;;;;;;;9.73;6.40;;;;;;;-143.84;78.25;45189.97;5070690;28;20429;-70
2022/10/30 03:41:16;;;;;;;7.53;5.73;;;;;;;-143.84;78.20;45170.94;5070518;28;20926;-70
2022/10/30 03:43:43;;;;;;;6.70;6.00;;;;;;;-143.84;77.63;45174.75;5070405;28;20444;-70
2022/10/30 03:46:10;;;;;;;7.73;6.20;;;;;;;-143.84;77.26;45193.78;5070457;28;21031;-70
2022/10/30 03:48:39;;;;;;;7.07;6.30;;;;;;;-143.84;77.43;45172.84;5070320;28;20451;-70
2022/10/30 03:51:06;;;;;;;9.53;7.23;;;;;;;-143.84;77.56;45189.97;5070519;28;21312;-70
2022/10/30 03:53:33;;;;;;;6.90;6.20;;;;;;;-143.84;77.42;45151.91;5070389;28;20507;-70
2022/10/30 03:56:02;;;;;;;7.60;6.27;;;;;;;-143.84;77.33;45163.31;5070392;28;20477;-70
2022/10/30 03:58:29;;;;;;;13.63;6.50;;;;;;;-143.84;77.29;45167.13;5070185;28;20444;-70
2022/10/30 04:01:01;;;;;;;7.20;6.30;;;;;;;-143.84;77.08;45161.41;5070257;28;20453;-70
2022/10/30 04:03:28;;;;;;;13.40;6.50;;;;;;;-143.84;76.49;45163.31;5069777;28;20693;-70
2022/10/30 04:05:57;;;;;;;11.90;6.90;;;;;;;-143.84;76.59;45189.97;5069462;28;20441;-70
2022/10/30 04:08:24;;;;;;;9.83;5.80;;;;;;;-143.84;76.50;45180.47;5069990;28;20447;-70
2022/10/30 04:10:51;;;;;;;13.23;6.87;;;;;;;-143.84;76.18;45184.25;5070193;28;20760;-70
2022/10/30 04:13:20;;;;;;;10.33;6.03;;;;;;;-143.84;76.22;45155.69;5070133;28;20450;-70
2022/10/30 04:15:49;;;;;;;8.60;5.50;;;;;;;-143.84;76.18;45169.03;5069179;28;21144;-70
2022/10/30 04:18:17;;;;;;;10.50;6.10;;;;;;;-143.84;75.96;45151.91;5069049;28;20535;-70
2022/10/30 04:20:45;;;;;;;7.37;6.60;;;;;;;-143.84;75.98;45172.84;5069076;28;20446;-70
2022/10/30 04:23:15;;;;;;;6.43;5.83;;;;;;;-143.84;75.83;45178.56;5069372;28;20960;-70
2022/10/30 04:25:43;;;;;;;10.40;6.37;;;;;;;-143.84;75.75;45172.84;5069775;28;20453;-70
2022/10/30 04:28:10;;;;;;;12.03;5.80;;;;;;;-143.84;75.62;45180.47;5069252;28;20446;-70
2022/10/30 04:30:38;;;;;;;6.23;5.50;;;;;;;-143.84;75.03;45157.59;5069279;28;20442;-70
2022/10/30 04:33:07;;;;;;;11.53;5.50;;;;;;;-143.84;74.22;45163.31;5068855;28;20443;-70
2022/10/30 04:35:37;;;;;;;9.73;5.40;;;;;;;-143.84;74.75;45191.88;5068649;28;20534;-70
2022/10/30 04:38:05;;;;;;;6.17;5.57;;;;;;;-143.84;74.04;45184.25;5069569;28;20444;-70
2022/10/30 04:40:36;;;;;;;7.17;5.37;;;;;;;-143.84;74.04;45180.47;5069722;28;20859;-70
2022/10/30 04:43:03;;;;;;;11.87;5.63;;;;;;;-143.84;74.06;45170.94;5069640;28;20441;-70
2022/10/30 04:45:31;;;;;;;6.80;5.57;;;;;;;-143.84;74.04;45188.06;5069291;28;21108;-70
2022/10/30 04:48:02;;;;;;;8.43;5.83;;;;;;;-143.84;73.36;45195.69;5069477;28;20433;-70
2022/10/30 04:50:30;;;;;;;11.07;5.53;;;;;;;-143.84;73.04;45148.09;5069195;28;20489;-70
2022/10/30 04:53:02;;;;;;;10.10;6.40;;;;;;;-143.84;73.28;45174.75;5069330;28;20506;-70
2022/10/30 04:55:29;;;;;;;8.60;5.60;;;;;;;-143.84;72.15;45188.06;5069117;28;20560;-70
2022/10/30 04:57:59;;;;;;;15.60;5.63;;;;;;;-143.84;71.95;45176.66;5069430;28;20755;-70
2022/10/30 05:00:27;;;;;;;7.13;6.40;;;;;;;-143.84;71.92;45161.41;5068966;28;20509;-70
2022/10/30 05:02:54;;;;;;;12.50;5.60;;;;;;;-143.84;72.38;45174.75;5068980;28;20457;-70
2022/10/30 05:05:21;;;;;;;9.67;5.20;;;;;;;-143.84;70.84;45146.19;5069394;28;21229;-70
2022/10/30 05:07:48;;;;;;;5.80;4.90;;;;;;;-143.84;70.26;45155.69;5069105;28;20455;-70
2022/10/30 05:10:17;;;;;;;7.00;5.50;;;;;;;-143.84;70.47;45172.84;5069260;28;20428;-70
2022/10/30 05:12:45;;;;;;;8.07;6.20;;;;;;;-143.84;70.94;45161.41;5068903;28;20444;-70
2022/10/30 05:15:14;;;;;;;6.93;5.50;;;;;;;-143.84;70.56;45176.66;5069029;28;20860;-70
2022/10/30 05:17:42;;;;;;;8.20;6.30;;;;;;;-143.84;70.63;45159.50;5069208;28;20531;-70
2022/10/30 05:20:10;;;;;;;7.97;5.80;;;;;;;-143.84;70.94;45170.94;5068872;28;20441;-70
2022/10/30 05:22:37;;;;;;;9.40;5.53;;;;;;;-143.84;70.51;45163.31;5068967;28;20447;-70
2022/10/30 05:25:05;;;;;;;7.50;5.37;;;;;;;-143.84;70.07;45172.84;5068516;28;20441;-70
2022/10/30 05:27:32;;;;;;;11.37;5.53;;;;;;;-143.84;70.00;45157.59;5068214;28;20434;-70
2022/10/30 05:29:59;;;;;;;14.60;5.87;;;;;;;-143.84;70.20;45174.75;5068611;28;20448;-70
2022/10/30 05:32:27;;;;;;;8.10;5.30;;;;;;;-143.84;69.07;45161.41;5068724;28;20445;-70
2022/10/30 05:34:55;;;;;;;8.90;5.13;;;;;;;-143.84;69.54;45153.81;5068684;28;20963;-70
2022/10/30 05:37:22;;;;;;;16.73;5.87;;;;;;;-143.84;69.66;45165.22;5068385;28;21197;-70
2022/10/30 05:39:49;;;;;;;6.23;5.20;;;;;;;-143.84;69.74;45155.69;5068499;28;20449;-70
2022/10/30 05:42:16;;;;;;;10.90;6.27;;;;;;;-143.84;70.91;45123.34;5068426;28;20871;-70
2022/10/30 05:44:43;;;;;;;8.47;5.70;;;;;;;-143.84;71.19;45146.19;5068150;28;20443;-70
2022/10/30 05:47:11;;;;;;;6.83;5.67;;;;;;;-143.84;70.15;45170.94;5072373;28;20948;-70
2022/10/30 05:49:40;;;;;;;7.30;5.83;;;;;;;-143.84;68.97;45178.56;5072709;28;20435;-70
2022/10/30 05:52:07;;;;;;;6.10;5.47;;;;;;;-143.84;68.66;45153.81;5071924;28;20519;-70
2022/10/30 05:54:34;;;;;;;5.83;4.90;;;;;;;-143.84;68.78;45155.69;5071957;28;20444;-70
2022/10/30 05:57:01;;;;;;;8.37;5.30;;;;;;;-143.84;69.05;45153.81;5071897;28;20927;-70
2022/10/30 05:59:28;;;;;;;6.43;5.50;;;;;;;-143.84;67.98;45150.00;5072382;28;20511;-71
2022/10/30 06:01:57;;;;;;;9.30;5.57;;;;;;;-143.84;67.20;45144.28;5072410;28;20435;-70
2022/10/30 06:04:24;;;;;;;9.80;6.00;;;;;;;-143.84;66.56;45159.50;5072342;28;20493;-71
2022/10/30 06:06:52;;;;;;;9.93;6.87;;;;;;;-143.84;66.56;45140.47;5072492;28;20452;-71
2022/10/30 06:09:20;;;;;;;6.50;5.70;;;;;;;-143.84;65.39;45151.91;5072186;28;20436;-71
2022/10/30 06:11:47;;;;;;;10.17;5.80;;;;;;;-143.84;64.65;45140.47;5072178;28;20453;-71
2022/10/30 06:14:14;;;;;;;8.70;4.80;;;;;;;-143.84;62.72;45125.22;5071941;28;20441;-71
2022/10/30 06:16:41;;;;;;;15.50;6.50;;;;;;;-143.84;63.97;45110.00;5072161;28;20974;-70
2022/10/30 06:19:08;;;;;;;9.40;5.50;;;;;;;-143.84;62.46;45129.03;5071641;28;20970;-71
2022/10/30 06:21:35;;;;;;;8.70;5.30;;;;;;;-143.84;60.09;45106.19;5071344;28;20433;-71
2022/10/30 06:24:04;;;;;;;10.17;6.13;;;;;;;-143.84;61.90;45134.75;5071777;28;20448;-71
2022/10/30 06:26:32;;;;;;;10.70;6.67;;;;;;;-143.84;61.90;45129.03;5071986;28;20502;-70
2022/10/30 06:28:59;;;;;;;8.30;5.97;;;;;;;-143.84;61.58;45125.22;5071997;28;20432;-70
2022/10/30 06:31:26;;;;;;;9.90;5.43;;;;;;;-143.84;62.16;45134.75;5071114;28;20509;-70
2022/10/30 06:33:53;;;;;;;9.23;5.97;;;;;;;-143.84;61.78;45117.63;5071158;28;20827;-70
2022/10/30 06:36:20;;;;;;;6.97;6.27;;;;;;;-143.84;61.05;45117.63;5070980;28;20545;-71
2022/10/30 06:38:47;;;;;;;8.40;5.80;;;;;;;-143.84;57.31;45123.34;5071701;28;20440;-71
2022/10/30 06:41:16;;;;;;;9.83;5.07;;;;;;;-143.84;56.54;45104.28;5071810;28;20550;-70
2022/10/30 06:43:43;;;;;;;6.60;5.80;;;;;;;-143.84;53.98;45121.44;5071893;28;21396;-70
2022/10/30 06:46:10;;;;;;;7.47;6.27;;;;;;;-143.84;55.60;45129.03;5071873;28;20449;-70
2022/10/30 06:48:37;;;;;;;5.73;5.20;;;;;;;-143.84;53.96;45119.53;5071528;28;20441;-70
2022/10/30 06:51:05;;;;;;;11.13;6.30;;;;;;;-143.84;51.61;45119.53;5070798;28;20501;-71
2022/10/30 06:53:32;;;;;;;11.80;5.40;;;;;;;-143.84;50.68;45087.16;5071578;28;21278;-71
2022/10/30 06:56:01;;;;;;;7.77;5.33;;;;;;;-143.84;51.38;45130.94;5071323;28;20484;-71
2022/10/30 06:58:30;;;;;;;9.50;6.43;;;;;;;-143.84;48.59;45087.16;5070792;28;20432;-70
2022/10/30 07:01:00;;;;;;;9.67;6.50;;;;;;;-143.84;48.62;45071.91;5071311;28;20459;-70
2022/10/30 07:03:27;;;;;;;9.60;6.50;;;;;;;-143.84;50.36;45087.16;5070984;28;20564;-71
2022/10/30 07:05:55;;;;;;;10.70;6.87;;;;;;;-143.84;49.61;45079.53;5071102;28;20437;-70
2022/10/30 07:08:22;;;;;;;11.60;6.00;;;;;;;-143.84;48.08;45094.78;5071273;28;20448;-70
2022/10/30 07:10:49;;;;;;;12.77;6.17;;;;;;;-143.84;48.24;45075.72;5070948;28;20950;-71
2022/10/30 07:13:16;;;;;;;7.43;6.33;;;;;;;-143.84;46.25;45092.88;5071387;28;20440;-70
2022/10/30 07:15:45;;;;;;;6.27;5.10;;;;;;;-143.84;47.16;45083.34;5070809;28;20456;-70
2022/10/30 07:18:12;;;;;;;18.80;5.87;;;;;;;-143.84;46.16;45092.88;5070879;28;20444;-70
2022/10/30 07:20:39;;;;;;;14.70;6.10;;;;;;;-143.84;47.58;45096.66;5070816;28;20441;-71
2022/10/30 07:23:06;;;;;;;10.23;5.40;;;;;;;-143.84;47.46;45073.81;5070985;28;20448;-70
2022/10/30 07:25:33;;;;;;;9.47;4.50;;;;;;;-143.84;46.04;45071.91;5070651;28;20437;-70
2022/10/30 07:28:01;;;;;;;9.73;5.47;;;;;;;-143.84;46.17;45064.31;5070982;28;20510;-70
2022/10/30 07:30:28;;;;;;;6.40;3.70;;;;;;;-143.84;45.10;45050.97;5070776;28;20441;-70
2022/10/30 07:33:01;;;;;;;10.77;4.10;;;;;;;-143.84;44.61;45062.41;5070462;28;20445;-70
2022/10/30 07:35:28;;;;;;;7.83;3.67;;;;;;;-143.84;43.62;45062.41;5070913;28;20445;-70
2022/10/30 07:37:56;;;;;;;11.03;3.90;;;;;;;-143.84;44.19;45052.88;5070455;28;20477;-70
2022/10/30 07:40:23;;;;;;;6.40;3.83;;;;;;;-143.84;43.54;45068.13;5070777;28;20430;-70
2022/10/30 07:42:56;;;;;;;5.90;3.77;;;;;;;-143.84;42.13;45060.50;5070670;28;20444;-70
2022/10/30 07:45:23;;;;;;;4.03;3.73;;;;;;;-143.84;41.10;45075.72;5071043;28;20526;-70
2022/10/30 07:47:50;;;;;;;5.10;4.27;;;;;;;-143.84;41.04;45049.06;5070474;28;20486;-70
2022/10/30 07:50:19;;;;;;;6.60;3.90;;;;;;;-143.84;41.42;45068.13;5070288;28;20443;-70
2022/10/30 07:52:46;;;;;;;3.97;3.67;;;;;;;-143.84;40.46;45094.78;5070219;28;20433;-70
2022/10/30 07:55:14;;;;;;;5.10;3.80;;;;;;;-143.84;39.68;45054.78;5070159;28;20483;-70
2022/10/30 07:57:42;;;;;;;8.50;3.53;;;;;;;-143.84;39.68;45064.31;5070044;28;20480;-70
2022/10/30 08:00:12;;;;;;;10.93;3.80;;;;;;;-143.84;39.84;45054.78;5069934;28;20453;-70
2022/10/30 08:02:39;;;;;;;5.00;3.80;;;;;;;-143.84;40.37;45050.97;5069897;28;20448;-71
2022/10/30 08:05:07;;;;;;;4.43;3.20;;;;;;;-143.84;39.29;45049.06;5070227;28;20441;-70
2022/10/30 08:07:37;;;;;;;9.63;3.83;;;;;;;-143.84;38.83;45050.97;5069455;28;20440;-70
2022/10/30 08:10:05;;;;;;;4.63;3.90;;;;;;;-143.84;38.75;45030.03;5068321;28;20445;-70
2022/10/30 08:12:34;;;;;;;5.60;4.10;;;;;;;-143.84;38.54;45037.66;5069808;28;20502;-70
2022/10/30 08:15:01;;;;;;;7.50;4.47;;;;;;;-143.84;38.74;45037.66;5069824;28;20510;-70
2022/10/30 08:17:28;;;;;;;10.17;4.80;;;;;;;-143.84;39.19;45035.75;5069252;28;20476;-70
2022/10/30 08:19:55;;;;;;;13.13;6.13;;;;;;;-143.84;38.68;45066.22;5069295;28;20441;-70
2022/10/30 08:22:23;;;;;;;10.53;7.53;;;;;;;-143.84;39.21;45056.69;5069686;28;20445;-70
2022/10/30 08:24:51;;;;;;;7.90;7.07;;;;;;;-143.84;38.54;45054.78;5069616;28;20452;-70
2022/10/30 08:27:18;;;;;;;12.83;6.97;;;;;;;-143.84;39.09;45041.44;5069863;28;20598;-70
2022/10/30 08:29:46;;;;;;;16.30;8.20;;;;;;;-143.84;38.91;45031.94;5069717;28;20441;-70
2022/10/30 08:32:14;;;;;;;19.20;9.50;;;;;;;-143.84;37.84;45026.22;5069740;28;20965;-70
2022/10/30 08:34:41;;;;;;;11.20;6.83;;;;;;;-143.84;37.62;45016.69;5069715;28;20452;-70
2022/10/30 08:37:08;;;;;;;8.60;5.20;;;;;;;-143.84;37.44;45009.09;5069569;28;20484;-70
2022/10/30 08:39:35;;;;;;;8.67;5.00;;;;;;;-143.84;37.44;45054.78;5069507;28;20448;-70
2022/10/30 08:42:04;;;;;;;6.00;4.70;;;;;;;-143.84;36.07;45022.41;5069322;28;20449;-70
2022/10/30 08:44:31;;;;;;;9.90;5.30;;;;;;;-143.84;36.81;45022.41;5051738;28;20441;-70
2022/10/30 08:46:58;;;;;;;6.00;5.40;;;;;;;-143.84;36.42;45001.47;5068729;28;20440;-70
2022/10/30 08:49:25;;;;;;;10.60;6.80;;;;;;;-143.84;35.94;45041.44;5068687;28;20444;-70
2022/10/30 08:51:53;;;;;;;20.33;7.27;;;;;;;-143.84;37.15;45022.41;5068749;28;20453;-70
2022/10/30 08:54:20;;;;;;;14.63;5.60;;;;;;;-143.84;36.36;45001.47;5068654;28;20437;-70
2022/10/30 08:56:47;;;;;;;11.73;5.23;;;;;;;-143.84;35.87;45026.22;5068356;28;20488;-70
2022/10/30 08:59:16;;;;;;;8.30;4.90;;;;;;;-143.84;35.39;45007.19;5069031;28;20441;-70
2022/10/30 09:01:44;;;;;;;24.97;7.07;;;;;;;-143.84;35.31;45020.50;5069148;28;20460;-70
2022/10/30 09:04:11;;;;;;;12.40;5.87;;;;;;;-143.84;34.62;45043.34;5055858;28;20489;-70
2022/10/30 09:06:38;;;;;;;14.23;4.63;;;;;;;-143.84;35.10;45020.50;5049123;28;20437;-70
2022/10/30 09:09:05;;;;;;;14.43;6.00;;;;;;;-143.84;34.76;44999.56;5049316;28;20437;-70
2022/10/30 09:11:33;;;;;;;17.10;8.27;;;;;;;-143.84;35.30;45009.09;5049080;28;21167;-70
2022/10/30 09:14:00;;;;;;;21.07;7.50;;;;;;;-143.84;35.11;44995.75;5049067;28;20433;-70
2022/10/30 09:16:28;;;;;;;9.33;6.50;;;;;;;-143.84;35.56;45007.19;5048899;28;21137;-70
2022/10/30 09:18:55;;;;;;;22.97;14.30;;;;;;;-143.84;34.92;45033.84;5048927;28;20924;-70
2022/10/30 09:21:23;;;;;;;27.40;13.67;;;;;;;-143.84;35.48;45018.59;5048285;28;20449;-70
2022/10/30 09:23:50;;;;;;;23.27;11.20;;;;;;;-143.84;35.63;45033.84;5049073;28;21107;-70
2022/10/30 09:26:18;;;;;;;10.27;6.70;;;;;;;-143.84;35.30;45005.28;5048825;28;20445;-70
2022/10/30 09:28:46;;;;;;;13.27;6.30;;;;;;;-143.84;35.31;45012.88;5048627;28;20437;-70
2022/10/30 09:31:13;;;;;;;11.47;6.23;;;;;;;-143.84;35.35;45010.97;5048681;28;20466;-70
2022/10/30 09:33:42;;;;;;;14.83;10.60;;;;;;;-143.84;34.92;45016.69;5048498;28;20483;-70
2022/10/30 09:36:10;;;;;;;36.17;18.93;;;;;;;-143.84;34.59;45020.50;5048514;28;20816;-70
2022/10/30 09:38:37;;;;;;;14.53;6.73;;;;;;;-143.84;34.88;45014.78;5048510;28;20492;-70
2022/10/30 09:41:28;;;;;;;14.37;10.37;;;;;;;-143.84;35.13;45014.78;5048611;28;20443;-70
2022/10/30 09:44:06;;;;;;;32.93;17.10;;;;;;;-143.84;35.38;44997.66;5048740;28;20879;-70
2022/10/30 09:46:48;;;;;;;36.10;12.77;;;;;;;-143.84;35.33;45001.47;5048214;28;20946;-70
2022/10/30 09:49:37;;;;;;;22.90;9.37;;;;;;;-143.84;35.22;44999.56;5047901;28;20441;-70
2022/10/30 09:52:19;;;;;;;21.73;9.40;;;;;;;-143.84;35.82;44995.75;5047599;28;20449;-70
2022/10/30 09:55:08;;;;;;;22.17;12.30;;;;;;;-143.84;35.33;45010.97;5048050;28;20438;-70
2022/10/30 09:57:43;;;;;;;21.77;12.70;;;;;;;-143.84;35.20;44991.94;5048587;28;20501;-70
2022/10/30 10:00:12;;;;;;;25.83;13.00;;;;;;;-143.84;35.51;45024.31;5048625;28;20448;-70
2022/10/30 10:02:53;;;;;;;24.43;12.13;;;;;;;-143.84;35.72;45010.97;5048004;28;20966;-70
2022/10/30 10:05:28;;;;;;;16.27;9.93;;;;;;;-143.84;35.41;45020.50;5048234;28;20429;-70
2022/10/30 10:08:00;;;;;;;17.10;11.80;;;;;;;-143.84;35.21;45033.84;5048394;28;20855;-70
2022/10/30 10:10:38;;;;;;;17.93;10.23;;;;;;;-143.84;35.13;45014.78;5048445;28;20437;-70
2022/10/30 10:13:10;;;;;;;21.10;12.60;;;;;;;-143.84;35.90;45010.97;5048722;28;20429;-70
2022/10/30 10:15:42;;;;;;;26.97;14.13;;;;;;;-143.84;35.78;45010.97;5048436;28;20515;-70
2022/10/30 10:18:17;;;;;;;25.93;17.03;;;;;;;-143.84;35.05;44990.03;5048127;28;20481;-70
2022/10/30 10:20:51;;;;;;;18.80;9.80;;;;;;;-143.84;35.84;45033.84;5048136;28;20449;-70
2022/10/30 10:23:20;;;;;;;27.77;9.77;;;;;;;-143.84;35.43;45026.22;5048314;28;20981;-70
2022/10/30 10:25:53;;;;;;;13.83;10.47;;;;;;;-143.84;35.59;45007.19;5048522;28;20460;-70
2022/10/30 10:28:49;;;;;;;23.30;10.67;;;;;;;-143.84;36.04;45022.41;5048134;28;20499;-70
2022/10/30 10:31:30;;;;;;;23.83;11.70;;;;;;;-143.84;36.58;44999.56;5048191;28;21041;-70
2022/10/30 10:34:19;;;;;;;27.73;12.00;;;;;;;-143.84;36.30;45028.13;5051251;28;20445;-70
2022/10/30 10:36:54;;;;;;;18.53;9.37;;;;;;;-143.84;35.93;45018.59;5051723;28;20445;-70
2022/10/30 10:39:39;;;;;;;16.13;8.47;;;;;;;-143.84;35.89;45041.44;5051768;28;20507;-70
2022/10/30 10:42:19;;;;;;;8.80;6.83;;;;;;;-143.84;36.08;45016.69;5051638;28;20452;-70
2022/10/30 10:44:55;;;;;;;11.97;7.83;;;;;;;-143.84;36.25;45028.13;5051888;28;20438;-70
2022/10/30 10:47:44;;;;;;;9.87;7.37;;;;;;;-143.84;35.99;45033.84;5051430;28;20441;-70
2022/10/30 10:50:19;;;;;;;16.17;7.00;;;;;;;-143.84;35.77;45003.38;5051564;28;20503;-70
2022/10/30 10:52:54;;;;;;;9.97;6.60;;;;;;;-143.84;36.38;45081.44;5051798;28;21048;-70
2022/10/30 10:55:25;;;;;;;12.20;6.90;;;;;;;-143.84;36.16;45030.03;5051861;28;20441;-70
2022/10/30 10:57:53;;;;;;;19.97;7.63;;;;;;;-143.84;36.37;45022.41;5051269;28;20488;-70
2022/10/30 11:00:27;;;;;;;12.63;7.23;;;;;;;-143.84;36.44;45037.66;5051319;28;20944;-70
2022/10/30 11:03:00;;;;;;;17.30;8.13;;;;;;;-143.84;36.62;45026.22;5050829;28;20445;-70
2022/10/30 11:05:35;;;;;;;9.87;5.60;;;;;;;-143.84;40.30;45024.31;5051724;28;20441;-70
2022/10/30 11:08:11;;;;;;;8.67;5.40;;;;;;;-143.84;43.74;45035.75;5051206;28;20433;-70
2022/10/30 11:10:39;;;;;;;11.40;5.30;;;;;;;-143.84;45.46;45026.22;5050352;28;20520;-70
2022/10/30 11:13:06;;;;;;;8.77;6.00;;;;;;;-143.84;46.23;45064.31;5050525;28;21082;-70
2022/10/30 11:15:50;;;;;;;11.00;5.40;;;;;;;-143.84;47.70;45039.53;5050291;28;20507;-70
2022/10/30 11:18:17;;;;;;;8.07;5.40;;;;;;;-143.84;48.75;45056.69;5050750;28;20485;-70
2022/10/30 11:20:57;;;;;;;6.13;4.80;;;;;;;-143.84;52.20;45054.78;5050496;28;20450;-70
2022/10/30 11:23:39;;;;;;;13.30;4.80;;;;;;;-143.84;51.36;45054.78;5050554;28;20441;-70
2022/10/30 11:26:29;;;;;;;9.00;5.67;;;;;;;-143.84;56.58;45090.97;5051113;28;20445;-70